Terminal Aerodrome Forecast
Issued by NWS Tuscon, AZ

Home | Current Version | Previous Version | Text Only | Print | Product List | Glossary On
Versions: 1 2 3 4 5 6 7 8 9 10 11 12 13
415
FTUS45 KTWC 161730
TAFDUG
TAF
KDUG 161730Z 1618/1718 08011G17KT P6SM SCT140 BKN250
     FM170400 05009KT P6SM FEW140 BKN250
     FM171000 01005KT P6SM SCT250=

USA.gov is the U.S. government's official web portal to all federal, state and local government web resources and services.